sensor_id;sensor_type;location;lat;lon;timestamp;P1;durP1;ratioP1;P2;durP2;ratioP2
43650;SDS011;29247;50.944;5.382;2022-07-09T00:00:25;2.20;;;1.65;;
43650;SDS011;29247;50.944;5.382;2022-07-09T00:02:51;1.98;;;1.58;;
43650;SDS011;29247;50.944;5.382;2022-07-09T00:05:21;2.70;;;1.70;;
43650;SDS011;29247;50.944;5.382;2022-07-09T00:07:46;1.70;;;1.60;;
43650;SDS011;29247;50.944;5.382;2022-07-09T00:10:12;1.77;;;1.38;;
43650;SDS011;29247;50.944;5.382;2022-07-09T00:12:38;2.20;;;1.70;;
43650;SDS011;29247;50.944;5.382;2022-07-09T00:15:04;1.63;;;1.52;;
43650;SDS011;29247;50.944;5.382;2022-07-09T00:17:31;2.28;;;1.60;;
43650;SDS011;29247;50.944;5.382;2022-07-09T00:19:57;1.50;;;1.40;;
43650;SDS011;29247;50.944;5.382;2022-07-09T00:22:23;2.33;;;1.83;;
43650;SDS011;29247;50.944;5.382;2022-07-09T00:24:48;1.75;;;1.35;;
43650;SDS011;29247;50.944;5.382;2022-07-09T00:27:14;3.17;;;1.50;;
43650;SDS011;29247;50.944;5.382;2022-07-09T00:29:40;2.28;;;1.38;;
43650;SDS011;29247;50.944;5.382;2022-07-09T00:32:08;3.00;;;2.45;;
43650;SDS011;29247;50.944;5.382;2022-07-09T00:34:34;4.30;;;2.50;;
43650;SDS011;29247;50.944;5.382;2022-07-09T00:36:59;2.42;;;1.70;;
43650;SDS011;29247;50.944;5.382;2022-07-09T00:39:26;1.92;;;1.35;;
43650;SDS011;29247;50.944;5.382;2022-07-09T00:42:02;1.88;;;1.65;;
43650;SDS011;29247;50.944;5.382;2022-07-09T00:44:37;2.75;;;1.80;;
43650;SDS011;29247;50.944;5.382;2022-07-09T00:47:04;1.92;;;1.52;;
43650;SDS011;29247;50.944;5.382;2022-07-09T00:49:37;1.95;;;1.67;;
43650;SDS011;29247;50.944;5.382;2022-07-09T00:52:10;2.53;;;1.65;;
43650;SDS011;29247;50.944;5.382;2022-07-09T00:57:05;1.35;;;1.20;;
43650;SDS011;29247;50.944;5.382;2022-07-09T00:59:33;1.95;;;1.63;;
43650;SDS011;29247;50.944;5.382;2022-07-09T01:02:00;2.58;;;1.70;;
43650;SDS011;29247;50.944;5.382;2022-07-09T01:04:29;3.17;;;1.50;;
43650;SDS011;29247;50.944;5.382;2022-07-09T01:06:55;4.63;;;1.73;;
43650;SDS011;29247;50.944;5.382;2022-07-09T01:09:23;4.80;;;1.63;;
43650;SDS011;29247;50.944;5.382;2022-07-09T01:11:52;2.10;;;1.70;;
43650;SDS011;29247;50.944;5.382;2022-07-09T01:14:18;5.00;;;1.85;;
43650;SDS011;29247;50.944;5.382;2022-07-09T01:16:46;4.00;;;1.73;;
43650;SDS011;29247;50.944;5.382;2022-07-09T01:19:23;3.30;;;1.70;;
43650;SDS011;29247;50.944;5.382;2022-07-09T01:21:49;1.67;;;1.48;;
43650;SDS011;29247;50.944;5.382;2022-07-09T01:24:15;5.60;;;1.40;;
43650;SDS011;29247;50.944;5.382;2022-07-09T01:26:43;4.00;;;1.65;;
43650;SDS011;29247;50.944;5.382;2022-07-09T01:29:09;2.45;;;1.58;;
43650;SDS011;29247;50.944;5.382;2022-07-09T01:31:36;1.85;;;1.40;;
43650;SDS011;29247;50.944;5.382;2022-07-09T01:34:05;2.83;;;1.55;;
43650;SDS011;29247;50.944;5.382;2022-07-09T01:36:31;3.70;;;1.63;;
43650;SDS011;29247;50.944;5.382;2022-07-09T01:38:56;2.40;;;1.70;;
43650;SDS011;29247;50.944;5.382;2022-07-09T01:41:22;3.65;;;2.10;;
43650;SDS011;29247;50.944;5.382;2022-07-09T01:43:48;2.30;;;1.85;;
43650;SDS011;29247;50.944;5.382;2022-07-09T01:46:15;2.22;;;2.03;;
43650;SDS011;29247;50.944;5.382;2022-07-09T01:48:43;2.50;;;1.80;;
43650;SDS011;29247;50.944;5.382;2022-07-09T01:51:09;2.75;;;1.85;;
43650;SDS011;29247;50.944;5.382;2022-07-09T01:53:35;2.30;;;1.83;;
43650;SDS011;29247;50.944;5.382;2022-07-09T01:56:08;2.33;;;2.07;;
43650;SDS011;29247;50.944;5.382;2022-07-09T01:58:34;2.22;;;1.70;;
43650;SDS011;29247;50.944;5.382;2022-07-09T02:01:01;2.72;;;1.92;;
43650;SDS011;29247;50.944;5.382;2022-07-09T02:03:27;3.55;;;2.13;;
43650;SDS011;29247;50.944;5.382;2022-07-09T02:05:53;2.08;;;1.85;;
43650;SDS011;29247;50.944;5.382;2022-07-09T02:08:23;2.03;;;1.40;;
43650;SDS011;29247;50.944;5.382;2022-07-09T02:10:52;2.42;;;1.70;;
43650;SDS011;29247;50.944;5.382;2022-07-09T02:13:19;2.37;;;2.10;;
43650;SDS011;29247;50.944;5.382;2022-07-09T02:15:45;3.22;;;1.95;;
43650;SDS011;29247;50.944;5.382;2022-07-09T02:18:11;3.58;;;1.88;;
43650;SDS011;29247;50.944;5.382;2022-07-09T02:20:37;1.85;;;1.65;;
43650;SDS011;29247;50.944;5.382;2022-07-09T02:23:03;4.45;;;1.70;;
43650;SDS011;29247;50.944;5.382;2022-07-09T02:25:29;2.28;;;1.75;;
43650;SDS011;29247;50.944;5.382;2022-07-09T02:27:58;1.90;;;1.52;;
43650;SDS011;29247;50.944;5.382;2022-07-09T02:30:28;2.95;;;1.92;;
43650;SDS011;29247;50.944;5.382;2022-07-09T02:32:54;1.83;;;1.63;;
43650;SDS011;29247;50.944;5.382;2022-07-09T02:35:19;1.90;;;1.50;;
43650;SDS011;29247;50.944;5.382;2022-07-09T02:37:45;2.58;;;2.03;;
43650;SDS011;29247;50.944;5.382;2022-07-09T02:40:13;2.20;;;1.73;;
43650;SDS011;29247;50.944;5.382;2022-07-09T02:42:41;3.50;;;1.70;;
43650;SDS011;29247;50.944;5.382;2022-07-09T02:45:07;3.42;;;2.08;;
43650;SDS011;29247;50.944;5.382;2022-07-09T02:47:33;2.35;;;2.10;;
43650;SDS011;29247;50.944;5.382;2022-07-09T02:49:58;2.47;;;1.75;;
43650;SDS011;29247;50.944;5.382;2022-07-09T02:52:24;2.72;;;1.92;;
43650;SDS011;29247;50.944;5.382;2022-07-09T02:54:50;2.75;;;1.83;;
43650;SDS011;29247;50.944;5.382;2022-07-09T02:57:16;2.22;;;1.90;;
43650;SDS011;29247;50.944;5.382;2022-07-09T02:59:44;3.55;;;2.20;;
43650;SDS011;29247;50.944;5.382;2022-07-09T03:02:10;2.13;;;1.80;;
43650;SDS011;29247;50.944;5.382;2022-07-09T03:04:35;3.17;;;2.00;;
43650;SDS011;29247;50.944;5.382;2022-07-09T03:07:01;1.80;;;1.65;;
43650;SDS011;29247;50.944;5.382;2022-07-09T03:09:26;3.00;;;1.88;;
43650;SDS011;29247;50.944;5.382;2022-07-09T03:11:55;1.60;;;1.50;;
43650;SDS011;29247;50.944;5.382;2022-07-09T03:14:23;1.75;;;1.65;;
43650;SDS011;29247;50.944;5.382;2022-07-09T03:16:51;2.53;;;2.17;;
43650;SDS011;29247;50.944;5.382;2022-07-09T03:19:21;1.40;;;1.30;;
43650;SDS011;29247;50.944;5.382;2022-07-09T03:21:47;1.65;;;1.40;;
43650;SDS011;29247;50.944;5.382;2022-07-09T03:24:13;2.38;;;2.15;;
43650;SDS011;29247;50.944;5.382;2022-07-09T03:26:38;3.72;;;2.38;;
43650;SDS011;29247;50.944;5.382;2022-07-09T03:29:04;2.33;;;2.08;;
43650;SDS011;29247;50.944;5.382;2022-07-09T03:31:34;2.13;;;1.60;;
43650;SDS011;29247;50.944;5.382;2022-07-09T03:36:30;3.83;;;1.77;;
43650;SDS011;29247;50.944;5.382;2022-07-09T03:38:56;2.15;;;1.60;;
43650;SDS011;29247;50.944;5.382;2022-07-09T03:41:21;3.30;;;2.08;;
43650;SDS011;29247;50.944;5.382;2022-07-09T03:43:47;2.10;;;1.90;;
43650;SDS011;29247;50.944;5.382;2022-07-09T03:46:13;2.42;;;1.85;;
43650;SDS011;29247;50.944;5.382;2022-07-09T03:48:39;3.30;;;2.00;;
43650;SDS011;29247;50.944;5.382;2022-07-09T03:51:09;1.90;;;1.50;;
43650;SDS011;29247;50.944;5.382;2022-07-09T03:53:35;5.18;;;1.80;;
43650;SDS011;29247;50.944;5.382;2022-07-09T03:56:03;2.58;;;1.90;;
43650;SDS011;29247;50.944;5.382;2022-07-09T03:58:35;1.88;;;1.73;;
43650;SDS011;29247;50.944;5.382;2022-07-09T04:01:03;1.60;;;1.50;;
43650;SDS011;29247;50.944;5.382;2022-07-09T04:03:31;2.25;;;1.60;;
43650;SDS011;29247;50.944;5.382;2022-07-09T04:06:00;1.95;;;1.63;;
43650;SDS011;29247;50.944;5.382;2022-07-09T04:08:25;3.20;;;2.03;;
43650;SDS011;29247;50.944;5.382;2022-07-09T04:10:51;2.05;;;1.70;;
43650;SDS011;29247;50.944;5.382;2022-07-09T04:13:19;2.03;;;1.80;;
43650;SDS011;29247;50.944;5.382;2022-07-09T04:15:49;2.58;;;2.33;;
43650;SDS011;29247;50.944;5.382;2022-07-09T04:18:17;2.35;;;2.15;;
43650;SDS011;29247;50.944;5.382;2022-07-09T04:20:43;2.40;;;1.80;;
43650;SDS011;29247;50.944;5.382;2022-07-09T04:23:09;2.17;;;1.75;;
43650;SDS011;29247;50.944;5.382;2022-07-09T04:25:37;2.35;;;2.15;;
43650;SDS011;29247;50.944;5.382;2022-07-09T04:28:02;2.40;;;1.88;;
43650;SDS011;29247;50.944;5.382;2022-07-09T04:30:30;2.47;;;1.90;;
43650;SDS011;29247;50.944;5.382;2022-07-09T04:32:55;2.58;;;1.90;;
43650;SDS011;29247;50.944;5.382;2022-07-09T04:35:25;3.85;;;1.80;;
43650;SDS011;29247;50.944;5.382;2022-07-09T04:37:53;2.42;;;2.22;;
43650;SDS011;29247;50.944;5.382;2022-07-09T04:40:19;2.17;;;1.80;;
43650;SDS011;29247;50.944;5.382;2022-07-09T04:42:45;2.38;;;1.83;;
43650;SDS011;29247;50.944;5.382;2022-07-09T04:45:10;3.90;;;2.00;;
43650;SDS011;29247;50.944;5.382;2022-07-09T04:47:36;3.92;;;1.70;;
43650;SDS011;29247;50.944;5.382;2022-07-09T04:50:02;6.10;;;1.95;;
43650;SDS011;29247;50.944;5.382;2022-07-09T04:52:30;3.72;;;2.33;;
43650;SDS011;29247;50.944;5.382;2022-07-09T04:54:56;2.20;;;2.00;;
43650;SDS011;29247;50.944;5.382;2022-07-09T04:57:21;6.32;;;2.50;;
43650;SDS011;29247;50.944;5.382;2022-07-09T04:59:47;2.40;;;2.13;;
43650;SDS011;29247;50.944;5.382;2022-07-09T05:02:13;3.55;;;2.15;;
43650;SDS011;29247;50.944;5.382;2022-07-09T05:04:39;3.17;;;2.47;;
43650;SDS011;29247;50.944;5.382;2022-07-09T05:07:04;3.38;;;2.67;;
43650;SDS011;29247;50.944;5.382;2022-07-09T05:09:30;4.57;;;2.70;;
43650;SDS011;29247;50.944;5.382;2022-07-09T05:12:01;4.28;;;3.85;;
43650;SDS011;29247;50.944;5.382;2022-07-09T05:14:27;5.75;;;3.22;;
43650;SDS011;29247;50.944;5.382;2022-07-09T05:16:53;4.13;;;3.17;;
43650;SDS011;29247;50.944;5.382;2022-07-09T05:19:20;3.85;;;3.15;;
43650;SDS011;29247;50.944;5.382;2022-07-09T05:21:49;4.47;;;3.28;;
43650;SDS011;29247;50.944;5.382;2022-07-09T05:24:15;6.10;;;3.78;;
43650;SDS011;29247;50.944;5.382;2022-07-09T05:26:40;5.30;;;4.00;;
43650;SDS011;29247;50.944;5.382;2022-07-09T05:29:06;9.55;;;4.30;;
43650;SDS011;29247;50.944;5.382;2022-07-09T05:31:32;7.90;;;3.90;;
43650;SDS011;29247;50.944;5.382;2022-07-09T05:34:00;5.68;;;4.07;;
43650;SDS011;29247;50.944;5.382;2022-07-09T05:36:27;5.82;;;4.05;;
43650;SDS011;29247;50.944;5.382;2022-07-09T05:38:56;6.70;;;4.28;;
43650;SDS011;29247;50.944;5.382;2022-07-09T05:41:22;9.93;;;4.75;;
43650;SDS011;29247;50.944;5.382;2022-07-09T05:43:49;7.25;;;4.57;;
43650;SDS011;29247;50.944;5.382;2022-07-09T05:46:15;7.47;;;4.07;;
43650;SDS011;29247;50.944;5.382;2022-07-09T05:48:41;4.57;;;3.95;;
43650;SDS011;29247;50.944;5.382;2022-07-09T05:51:07;7.78;;;4.57;;
43650;SDS011;29247;50.944;5.382;2022-07-09T05:53:32;6.15;;;4.32;;
43650;SDS011;29247;50.944;5.382;2022-07-09T05:55:58;7.32;;;4.35;;
43650;SDS011;29247;50.944;5.382;2022-07-09T05:58:26;8.52;;;5.80;;
43650;SDS011;29247;50.944;5.382;2022-07-09T06:00:51;10.32;;;5.68;;
43650;SDS011;29247;50.944;5.382;2022-07-09T06:03:19;8.93;;;6.20;;
43650;SDS011;29247;50.944;5.382;2022-07-09T06:05:47;9.50;;;7.13;;
43650;SDS011;29247;50.944;5.382;2022-07-09T06:08:13;9.98;;;6.75;;
43650;SDS011;29247;50.944;5.382;2022-07-09T06:10:40;9.75;;;6.75;;
43650;SDS011;29247;50.944;5.382;2022-07-09T06:13:07;11.30;;;6.43;;
43650;SDS011;29247;50.944;5.382;2022-07-09T06:15:37;10.65;;;7.10;;
43650;SDS011;29247;50.944;5.382;2022-07-09T06:18:03;10.80;;;7.35;;
43650;SDS011;29247;50.944;5.382;2022-07-09T06:20:32;11.68;;;7.78;;
43650;SDS011;29247;50.944;5.382;2022-07-09T06:25:28;12.55;;;8.50;;
43650;SDS011;29247;50.944;5.382;2022-07-09T06:27:58;12.55;;;7.90;;
43650;SDS011;29247;50.944;5.382;2022-07-09T06:30:24;12.15;;;8.65;;
43650;SDS011;29247;50.944;5.382;2022-07-09T06:32:54;13.60;;;9.95;;
43650;SDS011;29247;50.944;5.382;2022-07-09T06:35:20;13.90;;;9.52;;
43650;SDS011;29247;50.944;5.382;2022-07-09T06:37:48;16.23;;;9.05;;
43650;SDS011;29247;50.944;5.382;2022-07-09T06:40:14;12.77;;;8.73;;
43650;SDS011;29247;50.944;5.382;2022-07-09T06:42:40;15.63;;;9.13;;
43650;SDS011;29247;50.944;5.382;2022-07-09T06:45:06;11.18;;;6.72;;
43650;SDS011;29247;50.944;5.382;2022-07-09T06:47:35;9.63;;;7.57;;
43650;SDS011;29247;50.944;5.382;2022-07-09T06:50:01;10.30;;;5.65;;
43650;SDS011;29247;50.944;5.382;2022-07-09T06:52:30;9.07;;;5.38;;
43650;SDS011;29247;50.944;5.382;2022-07-09T06:54:55;7.65;;;4.45;;
43650;SDS011;29247;50.944;5.382;2022-07-09T06:57:21;6.82;;;4.88;;
43650;SDS011;29247;50.944;5.382;2022-07-09T06:59:47;9.98;;;6.70;;
43650;SDS011;29247;50.944;5.382;2022-07-09T07:02:12;7.93;;;5.57;;
43650;SDS011;29247;50.944;5.382;2022-07-09T07:04:41;11.00;;;5.53;;
43650;SDS011;29247;50.944;5.382;2022-07-09T07:07:09;9.52;;;5.95;;
43650;SDS011;29247;50.944;5.382;2022-07-09T07:09:37;11.40;;;5.50;;
43650;SDS011;29247;50.944;5.382;2022-07-09T07:12:03;10.13;;;5.05;;
43650;SDS011;29247;50.944;5.382;2022-07-09T07:14:32;5.93;;;4.97;;
43650;SDS011;29247;50.944;5.382;2022-07-09T07:16:58;6.30;;;4.47;;
43650;SDS011;29247;50.944;5.382;2022-07-09T07:19:24;7.45;;;4.70;;
43650;SDS011;29247;50.944;5.382;2022-07-09T07:21:49;7.22;;;5.07;;
43650;SDS011;29247;50.944;5.382;2022-07-09T07:24:15;7.10;;;4.75;;
43650;SDS011;29247;50.944;5.382;2022-07-09T07:26:41;14.68;;;5.65;;
43650;SDS011;29247;50.944;5.382;2022-07-09T07:29:09;5.43;;;4.70;;
43650;SDS011;29247;50.944;5.382;2022-07-09T07:31:34;6.65;;;4.60;;
43650;SDS011;29247;50.944;5.382;2022-07-09T07:34:00;7.13;;;4.18;;
43650;SDS011;29247;50.944;5.382;2022-07-09T07:36:26;9.38;;;5.30;;
43650;SDS011;29247;50.944;5.382;2022-07-09T07:38:57;5.05;;;4.32;;
43650;SDS011;29247;50.944;5.382;2022-07-09T07:41:28;7.43;;;4.40;;
43650;SDS011;29247;50.944;5.382;2022-07-09T07:43:56;7.45;;;5.00;;
43650;SDS011;29247;50.944;5.382;2022-07-09T07:46:21;9.75;;;4.70;;
43650;SDS011;29247;50.944;5.382;2022-07-09T07:48:47;8.70;;;4.80;;
43650;SDS011;29247;50.944;5.382;2022-07-09T07:51:12;6.35;;;4.78;;
43650;SDS011;29247;50.944;5.382;2022-07-09T07:53:40;8.15;;;5.95;;
43650;SDS011;29247;50.944;5.382;2022-07-09T07:56:08;8.23;;;5.25;;
43650;SDS011;29247;50.944;5.382;2022-07-09T07:58:39;5.85;;;4.38;;
43650;SDS011;29247;50.944;5.382;2022-07-09T08:01:07;6.65;;;4.30;;
43650;SDS011;29247;50.944;5.382;2022-07-09T08:03:33;5.85;;;4.00;;
43650;SDS011;29247;50.944;5.382;2022-07-09T08:05:59;8.75;;;4.88;;
43650;SDS011;29247;50.944;5.382;2022-07-09T08:08:25;12.63;;;6.28;;
43650;SDS011;29247;50.944;5.382;2022-07-09T08:10:51;5.35;;;4.78;;
43650;SDS011;29247;50.944;5.382;2022-07-09T08:13:19;6.55;;;4.80;;
43650;SDS011;29247;50.944;5.382;2022-07-09T08:15:50;4.88;;;4.13;;
43650;SDS011;29247;50.944;5.382;2022-07-09T08:18:15;7.30;;;4.50;;
43650;SDS011;29247;50.944;5.382;2022-07-09T08:20:44;6.10;;;4.97;;
43650;SDS011;29247;50.944;5.382;2022-07-09T08:23:12;7.55;;;4.70;;
43650;SDS011;29247;50.944;5.382;2022-07-09T08:25:38;11.57;;;4.82;;
43650;SDS011;29247;50.944;5.382;2022-07-09T08:28:06;10.70;;;7.05;;
43650;SDS011;29247;50.944;5.382;2022-07-09T08:30:35;5.88;;;4.97;;
43650;SDS011;29247;50.944;5.382;2022-07-09T08:33:02;5.53;;;4.30;;
43650;SDS011;29247;50.944;5.382;2022-07-09T08:35:28;5.18;;;3.83;;
43650;SDS011;29247;50.944;5.382;2022-07-09T08:37:56;8.90;;;4.68;;
43650;SDS011;29247;50.944;5.382;2022-07-09T08:40:22;7.47;;;3.95;;
43650;SDS011;29247;50.944;5.382;2022-07-09T08:42:53;7.95;;;4.40;;
43650;SDS011;29247;50.944;5.382;2022-07-09T08:45:22;4.90;;;4.25;;
43650;SDS011;29247;50.944;5.382;2022-07-09T08:47:49;5.85;;;4.47;;
43650;SDS011;29247;50.944;5.382;2022-07-09T08:50:14;10.32;;;5.22;;
43650;SDS011;29247;50.944;5.382;2022-07-09T08:52:41;8.77;;;4.55;;
43650;SDS011;29247;50.944;5.382;2022-07-09T08:55:07;6.43;;;3.80;;
43650;SDS011;29247;50.944;5.382;2022-07-09T08:57:33;3.67;;;3.05;;
43650;SDS011;29247;50.944;5.382;2022-07-09T09:00:02;6.15;;;3.80;;
43650;SDS011;29247;50.944;5.382;2022-07-09T09:02:35;8.05;;;4.13;;
43650;SDS011;29247;50.944;5.382;2022-07-09T09:05:14;3.85;;;3.42;;
43650;SDS011;29247;50.944;5.382;2022-07-09T09:07:45;6.20;;;4.78;;
43650;SDS011;29247;50.944;5.382;2022-07-09T09:10:24;8.63;;;4.82;;
43650;SDS011;29247;50.944;5.382;2022-07-09T09:13:00;4.32;;;3.38;;
43650;SDS011;29247;50.944;5.382;2022-07-09T09:15:27;6.38;;;3.65;;
43650;SDS011;29247;50.944;5.382;2022-07-09T09:17:53;5.40;;;3.30;;
43650;SDS011;29247;50.944;5.382;2022-07-09T09:20:21;3.83;;;3.45;;
43650;SDS011;29247;50.944;5.382;2022-07-09T09:22:51;5.60;;;4.30;;
43650;SDS011;29247;50.944;5.382;2022-07-09T09:25:19;11.40;;;4.00;;
43650;SDS011;29247;50.944;5.382;2022-07-09T09:27:49;4.90;;;3.47;;
43650;SDS011;29247;50.944;5.382;2022-07-09T09:30:40;5.35;;;3.50;;
43650;SDS011;29247;50.944;5.382;2022-07-09T09:33:13;6.18;;;3.83;;
43650;SDS011;29247;50.944;5.382;2022-07-09T09:35:44;8.15;;;3.45;;
43650;SDS011;29247;50.944;5.382;2022-07-09T09:38:10;4.28;;;3.88;;
43650;SDS011;29247;50.944;5.382;2022-07-09T09:40:44;5.30;;;3.65;;
43650;SDS011;29247;50.944;5.382;2022-07-09T09:43:10;5.20;;;3.83;;
43650;SDS011;29247;50.944;5.382;2022-07-09T09:45:36;7.05;;;5.38;;
43650;SDS011;29247;50.944;5.382;2022-07-09T09:48:04;6.75;;;4.30;;
43650;SDS011;29247;50.944;5.382;2022-07-09T09:50:31;5.10;;;3.78;;
43650;SDS011;29247;50.944;5.382;2022-07-09T09:52:59;7.22;;;4.05;;
43650;SDS011;29247;50.944;5.382;2022-07-09T09:55:26;5.97;;;3.67;;
43650;SDS011;29247;50.944;5.382;2022-07-09T09:57:55;6.22;;;5.13;;
43650;SDS011;29247;50.944;5.382;2022-07-09T10:00:21;4.65;;;3.80;;
43650;SDS011;29247;50.944;5.382;2022-07-09T10:02:47;5.60;;;4.55;;
43650;SDS011;29247;50.944;5.382;2022-07-09T10:05:15;5.30;;;3.20;;
43650;SDS011;29247;50.944;5.382;2022-07-09T10:07:43;4.85;;;3.47;;
43650;SDS011;29247;50.944;5.382;2022-07-09T10:10:20;5.72;;;3.63;;
43650;SDS011;29247;50.944;5.382;2022-07-09T10:12:46;4.47;;;2.72;;
43650;SDS011;29247;50.944;5.382;2022-07-09T10:15:24;4.55;;;2.95;;
43650;SDS011;29247;50.944;5.382;2022-07-09T10:17:51;4.68;;;4.25;;
43650;SDS011;29247;50.944;5.382;2022-07-09T10:20:28;4.40;;;3.55;;
43650;SDS011;29247;50.944;5.382;2022-07-09T10:22:58;7.07;;;3.05;;
43650;SDS011;29247;50.944;5.382;2022-07-09T10:25:29;5.65;;;3.72;;
43650;SDS011;29247;50.944;5.382;2022-07-09T10:27:56;4.55;;;3.80;;
43650;SDS011;29247;50.944;5.382;2022-07-09T10:30:31;6.85;;;3.67;;
43650;SDS011;29247;50.944;5.382;2022-07-09T10:33:03;5.50;;;3.42;;
43650;SDS011;29247;50.944;5.382;2022-07-09T10:35:38;6.55;;;3.30;;
43650;SDS011;29247;50.944;5.382;2022-07-09T10:38:05;6.85;;;3.80;;
43650;SDS011;29247;50.944;5.382;2022-07-09T10:40:41;5.47;;;3.33;;
43650;SDS011;29247;50.944;5.382;2022-07-09T10:43:08;5.43;;;3.97;;
43650;SDS011;29247;50.944;5.382;2022-07-09T10:48:07;8.27;;;3.30;;
43650;SDS011;29247;50.944;5.382;2022-07-09T10:50:36;4.65;;;3.05;;
43650;SDS011;29247;50.944;5.382;2022-07-09T10:53:03;3.42;;;2.45;;
43650;SDS011;29247;50.944;5.382;2022-07-09T10:55:29;6.05;;;3.30;;
43650;SDS011;29247;50.944;5.382;2022-07-09T10:57:56;7.57;;;3.25;;
43650;SDS011;29247;50.944;5.382;2022-07-09T11:00:23;7.90;;;3.38;;
43650;SDS011;29247;50.944;5.382;2022-07-09T11:05:26;6.35;;;3.33;;
43650;SDS011;29247;50.944;5.382;2022-07-09T11:07:56;5.40;;;4.38;;
43650;SDS011;29247;50.944;5.382;2022-07-09T11:10:22;8.00;;;4.75;;
43650;SDS011;29247;50.944;5.382;2022-07-09T11:12:48;9.55;;;4.18;;
43650;SDS011;29247;50.944;5.382;2022-07-09T11:15:18;3.95;;;3.55;;
43650;SDS011;29247;50.944;5.382;2022-07-09T11:17:56;4.72;;;3.75;;
43650;SDS011;29247;50.944;5.382;2022-07-09T11:20:36;6.47;;;4.25;;
43650;SDS011;29247;50.944;5.382;2022-07-09T11:23:04;5.78;;;4.30;;
43650;SDS011;29247;50.944;5.382;2022-07-09T11:25:30;9.75;;;5.53;;
43650;SDS011;29247;50.944;5.382;2022-07-09T11:27:57;9.50;;;5.22;;
43650;SDS011;29247;50.944;5.382;2022-07-09T11:30:25;9.27;;;4.45;;
43650;SDS011;29247;50.944;5.382;2022-07-09T11:32:52;6.35;;;5.60;;
43650;SDS011;29247;50.944;5.382;2022-07-09T11:35:27;6.35;;;4.03;;
43650;SDS011;29247;50.944;5.382;2022-07-09T11:37:57;7.35;;;5.28;;
43650;SDS011;29247;50.944;5.382;2022-07-09T11:40:26;10.20;;;5.65;;
43650;SDS011;29247;50.944;5.382;2022-07-09T11:42:53;6.95;;;4.85;;
43650;SDS011;29247;50.944;5.382;2022-07-09T11:45:27;8.25;;;6.30;;
43650;SDS011;29247;50.944;5.382;2022-07-09T11:48:04;7.18;;;6.45;;
43650;SDS011;29247;50.944;5.382;2022-07-09T11:50:45;9.20;;;6.43;;
43650;SDS011;29247;50.944;5.382;2022-07-09T11:53:23;6.45;;;5.80;;
43650;SDS011;29247;50.944;5.382;2022-07-09T11:56:03;12.82;;;9.35;;
43650;SDS011;29247;50.944;5.382;2022-07-09T11:58:29;8.95;;;7.97;;
43650;SDS011;29247;50.944;5.382;2022-07-09T12:00:55;13.32;;;7.75;;
43650;SDS011;29247;50.944;5.382;2022-07-09T12:03:28;12.75;;;9.35;;
43650;SDS011;29247;50.944;5.382;2022-07-09T12:05:58;15.23;;;11.15;;
43650;SDS011;29247;50.944;5.382;2022-07-09T12:08:28;13.25;;;10.25;;
43650;SDS011;29247;50.944;5.382;2022-07-09T12:10:58;11.85;;;9.73;;
43650;SDS011;29247;50.944;5.382;2022-07-09T12:13:29;12.90;;;9.20;;
43650;SDS011;29247;50.944;5.382;2022-07-09T12:15:55;12.02;;;10.20;;
43650;SDS011;29247;50.944;5.382;2022-07-09T12:18:21;9.85;;;7.57;;
43650;SDS011;29247;50.944;5.382;2022-07-09T12:20:49;9.70;;;7.03;;
43650;SDS011;29247;50.944;5.382;2022-07-09T12:23:16;7.40;;;6.43;;
43650;SDS011;29247;50.944;5.382;2022-07-09T12:25:45;8.25;;;6.88;;
43650;SDS011;29247;50.944;5.382;2022-07-09T12:28:11;10.15;;;6.20;;
43650;SDS011;29247;50.944;5.382;2022-07-09T12:30:39;7.38;;;6.15;;
43650;SDS011;29247;50.944;5.382;2022-07-09T12:33:07;8.00;;;5.55;;
43650;SDS011;29247;50.944;5.382;2022-07-09T12:35:33;7.47;;;5.00;;
43650;SDS011;29247;50.944;5.382;2022-07-09T12:37:58;6.18;;;5.05;;
43650;SDS011;29247;50.944;5.382;2022-07-09T12:40:24;8.60;;;4.90;;
43650;SDS011;29247;50.944;5.382;2022-07-09T12:42:50;6.55;;;4.72;;
43650;SDS011;29247;50.944;5.382;2022-07-09T12:45:15;7.55;;;4.70;;
43650;SDS011;29247;50.944;5.382;2022-07-09T12:47:44;5.32;;;3.28;;
43650;SDS011;29247;50.944;5.382;2022-07-09T12:50:09;5.03;;;2.80;;
43650;SDS011;29247;50.944;5.382;2022-07-09T12:52:36;3.95;;;3.03;;
43650;SDS011;29247;50.944;5.382;2022-07-09T12:55:04;7.18;;;2.15;;
43650;SDS011;29247;50.944;5.382;2022-07-09T12:57:31;2.15;;;1.80;;
43650;SDS011;29247;50.944;5.382;2022-07-09T12:59:57;2.13;;;1.98;;
43650;SDS011;29247;50.944;5.382;2022-07-09T13:02:22;2.15;;;1.95;;
43650;SDS011;29247;50.944;5.382;2022-07-09T13:04:50;2.90;;;1.92;;
43650;SDS011;29247;50.944;5.382;2022-07-09T13:07:16;2.47;;;1.33;;
43650;SDS011;29247;50.944;5.382;2022-07-09T13:09:42;2.33;;;1.10;;
43650;SDS011;29247;50.944;5.382;2022-07-09T13:12:07;2.55;;;1.27;;
43650;SDS011;29247;50.944;5.382;2022-07-09T13:14:33;1.45;;;0.95;;
43650;SDS011;29247;50.944;5.382;2022-07-09T13:16:59;2.00;;;1.08;;
43650;SDS011;29247;50.944;5.382;2022-07-09T13:19:27;2.75;;;1.13;;
43650;SDS011;29247;50.944;5.382;2022-07-09T13:21:54;0.90;;;0.90;;
43650;SDS011;29247;50.944;5.382;2022-07-09T13:24:21;1.98;;;0.80;;
43650;SDS011;29247;50.944;5.382;2022-07-09T13:26:46;4.68;;;1.10;;
43650;SDS011;29247;50.944;5.382;2022-07-09T13:29:15;1.00;;;0.90;;
43650;SDS011;29247;50.944;5.382;2022-07-09T13:31:40;1.05;;;0.95;;
43650;SDS011;29247;50.944;5.382;2022-07-09T13:34:06;1.10;;;1.00;;
43650;SDS011;29247;50.944;5.382;2022-07-09T13:36:34;0.93;;;0.80;;
43650;SDS011;29247;50.944;5.382;2022-07-09T13:39:00;1.08;;;0.98;;
43650;SDS011;29247;50.944;5.382;2022-07-09T13:41:26;1.35;;;0.90;;
43650;SDS011;29247;50.944;5.382;2022-07-09T13:43:51;0.90;;;0.90;;
43650;SDS011;29247;50.944;5.382;2022-07-09T13:46:20;3.10;;;0.90;;
43650;SDS011;29247;50.944;5.382;2022-07-09T13:48:45;1.20;;;0.80;;
43650;SDS011;29247;50.944;5.382;2022-07-09T13:51:11;2.78;;;1.05;;
43650;SDS011;29247;50.944;5.382;2022-07-09T13:53:39;1.65;;;1.00;;
43650;SDS011;29247;50.944;5.382;2022-07-09T13:56:05;1.42;;;0.95;;
43650;SDS011;29247;50.944;5.382;2022-07-09T13:58:34;3.70;;;0.75;;
43650;SDS011;29247;50.944;5.382;2022-07-09T14:00:59;2.80;;;0.90;;
43650;SDS011;29247;50.944;5.382;2022-07-09T14:03:25;1.23;;;0.80;;
43650;SDS011;29247;50.944;5.382;2022-07-09T14:05:51;1.17;;;0.80;;
43650;SDS011;29247;50.944;5.382;2022-07-09T14:08:18;1.10;;;0.80;;
43650;SDS011;29247;50.944;5.382;2022-07-09T14:10:44;1.92;;;1.05;;
43650;SDS011;29247;50.944;5.382;2022-07-09T14:13:13;1.58;;;0.93;;
43650;SDS011;29247;50.944;5.382;2022-07-09T14:15:39;1.00;;;0.73;;
43650;SDS011;29247;50.944;5.382;2022-07-09T14:18:07;2.30;;;0.80;;
43650;SDS011;29247;50.944;5.382;2022-07-09T14:20:35;2.58;;;1.25;;
43650;SDS011;29247;50.944;5.382;2022-07-09T14:23:01;0.70;;;0.60;;
43650;SDS011;29247;50.944;5.382;2022-07-09T14:25:29;0.90;;;0.75;;
43650;SDS011;29247;50.944;5.382;2022-07-09T14:27:54;1.30;;;0.88;;
43650;SDS011;29247;50.944;5.382;2022-07-09T14:30:20;1.13;;;0.68;;
43650;SDS011;29247;50.944;5.382;2022-07-09T14:32:46;2.83;;;0.80;;
43650;SDS011;29247;50.944;5.382;2022-07-09T14:35:11;1.63;;;0.70;;
43650;SDS011;29247;50.944;5.382;2022-07-09T14:37:37;2.47;;;0.77;;
43650;SDS011;29247;50.944;5.382;2022-07-09T14:40:03;1.38;;;0.90;;
43650;SDS011;29247;50.944;5.382;2022-07-09T14:42:32;1.10;;;0.80;;
43650;SDS011;29247;50.944;5.382;2022-07-09T14:44:57;1.65;;;0.88;;
43650;SDS011;29247;50.944;5.382;2022-07-09T14:47:25;1.80;;;0.70;;
43650;SDS011;29247;50.944;5.382;2022-07-09T14:49:52;2.00;;;0.73;;
43650;SDS011;29247;50.944;5.382;2022-07-09T14:52:19;1.02;;;0.70;;
43650;SDS011;29247;50.944;5.382;2022-07-09T14:54:47;1.00;;;0.60;;
43650;SDS011;29247;50.944;5.382;2022-07-09T14:57:13;3.88;;;1.30;;
43650;SDS011;29247;50.944;5.382;2022-07-09T14:59:39;2.75;;;0.90;;